Time;durP1;ratioP1;P1;durP2;ratioP2;P2;SDS_P1;SDS_P2;PMS_P1;PMS_P2;Temp;Humidity;BMP_temperature;BMP_pressure;BME280_temperature;BME280_humidity;BME280_pressure;Samples;Min_cycle;Max_cycle;Signal;HPM_P1;HPM_P2
2023/03/25 00:01:52;;;;;;;1.70;1.00;;;;;;;11.59;64.07;95102.44;6220156;23;20174;-87
2023/03/25 00:04:19;;;;;;;1.20;1.10;;;;;;;11.55;64.21;95090.13;6221199;23;20174;-87
2023/03/25 00:06:45;;;;;;;1.50;1.00;;;;;;;11.53;64.15;95092.13;6220117;23;20186;-88
2023/03/25 00:09:13;;;;;;;1.80;1.17;;;;;;;11.49;64.25;95085.75;6219973;23;20224;-86
2023/03/25 00:11:40;;;;;;;1.53;1.10;;;;;;;11.46;64.15;95079.19;6219955;23;20178;-86
2023/03/25 00:14:07;;;;;;;1.20;1.00;;;;;;;11.44;64.05;95078.59;6220099;23;20185;-87
2023/03/25 00:16:33;;;;;;;1.70;1.00;;;;;;;11.35;64.10;95072.03;6220237;23;20546;-87
2023/03/25 00:19:00;;;;;;;1.80;1.10;;;;;;;11.39;64.23;95074.03;6220304;23;20189;-87
2023/03/25 00:21:27;;;;;;;1.20;1.00;;;;;;;11.39;63.59;95076.59;6219200;23;20204;-87
2023/03/25 00:23:53;;;;;;;1.40;1.10;;;;;;;11.43;63.46;95071.84;6219132;23;20268;-87
2023/03/25 00:26:21;;;;;;;1.80;1.20;;;;;;;11.45;63.34;95069.88;6220405;23;20197;-87
2023/03/25 00:28:48;;;;;;;1.73;1.07;;;;;;;11.45;62.88;95075.03;6220153;23;20193;-87
2023/03/25 00:31:15;;;;;;;1.20;1.00;;;;;;;11.35;63.13;95077.97;6219972;23;20170;-88
2023/03/25 00:33:41;;;;;;;0.97;0.90;;;;;;;11.51;62.62;95084.59;6220378;23;20185;-87
2023/03/25 00:36:13;;;;;;;0.90;0.80;;;;;;;11.31;62.38;95074.22;6220272;23;20188;-89
2023/03/25 00:38:42;;;;;;;1.03;0.90;;;;;;;11.31;62.69;95084.53;6219134;23;20193;-88
2023/03/25 00:41:16;;;;;;;2.03;0.90;;;;;;;11.28;62.39;95077.16;6219535;23;20239;-88
2023/03/25 00:43:45;;;;;;;1.67;1.00;;;;;;;11.32;62.25;95088.69;6219608;23;20192;-86
2023/03/25 00:46:13;;;;;;;1.50;1.10;;;;;;;11.39;62.03;95084.31;6220253;23;20177;-87
2023/03/25 00:48:52;;;;;;;1.93;1.10;;;;;;;11.36;61.69;95086.50;6219007;23;20193;-88
2023/03/25 00:51:20;;;;;;;1.37;1.00;;;;;;;11.42;61.73;95088.31;6219068;23;20174;-87
2023/03/25 00:53:50;;;;;;;1.47;1.00;;;;;;;11.45;61.62;95084.56;6220135;23;20643;-87
2023/03/25 00:56:17;;;;;;;4.13;1.10;;;;;;;11.46;61.71;95079.19;6219915;23;20174;-86
2023/03/25 00:58:45;;;;;;;1.83;1.03;;;;;;;11.41;61.35;95079.78;6219891;23;20676;-88
2023/03/25 01:01:15;;;;;;;2.20;1.17;;;;;;;11.47;61.41;95080.00;6218751;23;20180;-87
2023/03/25 01:03:43;;;;;;;1.10;0.90;;;;;;;11.46;61.42;95073.25;6220072;23;20591;-86
2023/03/25 01:06:17;;;;;;;1.93;1.10;;;;;;;11.41;61.19;95079.78;6219870;23;20201;-88
2023/03/25 01:08:48;;;;;;;2.07;0.90;;;;;;;11.47;61.31;95070.47;6218899;23;20204;-88
2023/03/25 01:11:22;;;;;;;2.03;1.00;;;;;;;11.39;60.92;95066.28;6218901;23;20180;-88
2023/03/25 01:13:51;;;;;;;3.10;1.00;;;;;;;11.45;61.02;95063.94;6220848;23;20232;-86
2023/03/25 01:16:20;;;;;;;2.60;1.00;;;;;;;11.30;61.22;95070.03;6220508;23;20240;-88
2023/03/25 01:18:47;;;;;;;4.17;1.70;;;;;;;11.34;61.26;95075.63;6220676;23;20198;-87
2023/03/25 01:21:13;;;;;;;1.63;0.80;;;;;;;11.30;61.03;95057.16;6219793;23;20545;-87
2023/03/25 01:23:40;;;;;;;2.87;1.13;;;;;;;11.40;60.82;95061.94;6219735;23;20178;-87
2023/03/25 01:26:07;;;;;;;3.17;1.10;;;;;;;11.47;60.56;95057.59;6219556;23;20186;-87
2023/03/25 01:28:33;;;;;;;1.00;0.90;;;;;;;11.50;60.83;95057.22;6219580;23;20205;-86
2023/03/25 01:31:03;;;;;;;1.20;1.10;;;;;;;11.40;60.86;95062.72;6219559;23;20181;-88
2023/03/25 01:33:29;;;;;;;2.73;1.10;;;;;;;11.37;60.82;95055.38;6219486;23;20179;-87
2023/03/25 01:35:56;;;;;;;1.93;0.80;;;;;;;11.41;60.58;95056.59;6219974;23;20197;-86
2023/03/25 01:38:22;;;;;;;1.40;0.90;;;;;;;11.48;60.44;95051.44;6220437;23;20198;-87
2023/03/25 01:40:50;;;;;;;0.93;0.87;;;;;;;11.43;60.78;95051.22;6219395;23;20173;-86
2023/03/25 01:43:17;;;;;;;1.90;0.90;;;;;;;11.46;60.92;95060.38;6219274;23;20176;-86
2023/03/25 01:45:45;;;;;;;2.37;0.97;;;;;;;11.42;60.63;95055.59;6219455;23;20178;-86
2023/03/25 01:48:17;;;;;;;2.50;0.90;;;;;;;11.41;60.97;95058.38;6220144;23;20197;-86
2023/03/25 01:50:48;;;;;;;1.17;0.90;;;;;;;11.39;60.85;95071.44;6219863;23;20189;-87
2023/03/25 01:53:15;;;;;;;2.00;1.00;;;;;;;11.35;60.85;95062.50;6219256;23;20169;-88
2023/03/25 01:55:43;;;;;;;3.77;1.03;;;;;;;11.42;60.21;95047.06;6220807;23;20177;-87
2023/03/25 01:58:12;;;;;;;1.53;0.90;;;;;;;11.45;60.23;95051.84;6219367;23;20204;-88
2023/03/25 02:00:40;;;;;;;1.93;1.27;;;;;;;11.45;59.76;95053.63;6218228;23;20173;-88
2023/03/25 02:03:07;;;;;;;2.00;1.13;;;;;;;11.52;59.58;95044.13;6219939;23;20232;-86
2023/03/25 02:05:39;;;;;;;1.77;0.83;;;;;;;11.46;59.73;95047.47;6220394;23;20197;-87
2023/03/25 02:08:07;;;;;;;1.33;0.87;;;;;;;11.49;59.90;95042.72;6219472;23;20261;-86
2023/03/25 02:10:34;;;;;;;2.57;0.80;;;;;;;11.42;59.81;95024.66;6219654;23;20202;-88
2023/03/25 02:13:02;;;;;;;2.60;0.83;;;;;;;11.26;60.20;95037.13;6219958;23;20177;-87
2023/03/25 02:15:38;;;;;;;2.03;1.33;;;;;;;11.25;60.49;95026.00;6220959;23;20570;-86
2023/03/25 02:18:29;;;;;;;1.93;0.90;;;;;;;11.25;60.01;95014.91;6219191;23;20158;-87
2023/03/25 02:21:49;;;;;;;1.70;0.90;;;;;;;11.38;59.65;95009.78;6220017;23;20196;-87
2023/03/25 02:24:44;;;;;;;2.67;1.10;;;;;;;11.39;59.16;95003.63;6127262;23;20180;-86
2023/03/25 02:27:25;;;;;;;2.37;1.07;;;;;;;11.38;59.38;95007.19;6126868;23;20191;-88
2023/03/25 02:30:24;;;;;;;1.17;0.70;;;;;;;11.22;59.41;95008.34;6194298;23;20244;-87
2023/03/25 02:33:17;;;;;;;2.77;1.00;;;;;;;11.22;59.10;95018.66;6219610;23;20157;-88
2023/03/25 02:36:16;;;;;;;1.67;0.90;;;;;;;11.18;58.85;95009.72;6138634;23;20178;-88
2023/03/25 02:38:49;;;;;;;2.13;0.90;;;;;;;11.18;59.01;95017.47;6219846;23;20197;-87
2023/03/25 02:41:22;;;;;;;1.50;0.87;;;;;;;11.22;58.55;95013.50;6218978;23;20185;-86
2023/03/25 02:43:54;;;;;;;1.73;0.90;;;;;;;11.29;58.32;95032.38;6220645;23;20161;-88
2023/03/25 02:46:24;;;;;;;1.43;1.00;;;;;;;11.25;58.40;95028.59;6222223;23;20158;-86
2023/03/25 02:48:54;;;;;;;2.20;1.03;;;;;;;11.18;58.73;95024.38;6220929;23;20728;-87
2023/03/25 02:51:25;;;;;;;1.43;0.80;;;;;;;11.14;58.53;95021.44;6221534;23;20172;-88
2023/03/25 02:53:56;;;;;;;2.13;0.77;;;;;;;11.14;58.69;95033.53;6221602;23;20548;-87
2023/03/25 02:56:26;;;;;;;3.07;0.80;;;;;;;11.18;58.58;95037.28;6221097;23;20181;-86
2023/03/25 02:58:55;;;;;;;3.33;1.00;;;;;;;11.09;58.76;95028.94;6221476;23;20205;-86
2023/03/25 03:01:25;;;;;;;2.23;1.00;;;;;;;11.08;58.74;95032.50;6219551;23;20180;-88
2023/03/25 03:03:52;;;;;;;1.37;0.80;;;;;;;11.08;58.77;95030.72;6222063;23;20162;-88
2023/03/25 03:06:19;;;;;;;2.17;0.90;;;;;;;11.02;58.76;95018.59;6221445;23;20184;-86
2023/03/25 03:09:02;;;;;;;1.40;0.80;;;;;;;11.00;59.02;95030.06;6222029;23;20193;-88
2023/03/25 03:11:34;;;;;;;1.60;0.90;;;;;;;11.02;58.54;95015.22;6221096;23;20158;-88
2023/03/25 03:14:15;;;;;;;1.60;1.00;;;;;;;10.93;58.86;95003.53;6220947;23;20162;-86
2023/03/25 03:16:48;;;;;;;1.10;0.90;;;;;;;10.95;58.78;95010.06;6221104;23;20164;-86
2023/03/25 03:19:30;;;;;;;3.03;0.90;;;;;;;10.88;58.32;95003.28;6220568;23;20196;-86
2023/03/25 03:22:01;;;;;;;1.73;0.77;;;;;;;10.90;57.91;95003.91;6219870;23;20170;-88
2023/03/25 03:24:32;;;;;;;1.83;0.90;;;;;;;10.86;57.70;95013.00;6220489;23;20162;-86
2023/03/25 03:27:06;;;;;;;1.67;0.77;;;;;;;10.83;58.01;95016.75;6220750;23;20173;-87
2023/03/25 03:29:36;;;;;;;1.97;0.90;;;;;;;10.80;58.02;95011.97;6220847;23;20202;-86
2023/03/25 03:32:08;;;;;;;2.43;0.87;;;;;;;10.79;58.04;95005.22;6221449;23;20162;-88
2023/03/25 03:34:42;;;;;;;2.03;0.90;;;;;;;10.87;58.57;95006.84;6220994;23;20162;-87
2023/03/25 03:37:10;;;;;;;0.80;0.60;;;;;;;10.77;59.26;95019.31;6220209;23;20162;-87
2023/03/25 03:39:43;;;;;;;1.93;1.03;;;;;;;10.65;59.31;95019.81;6221670;23;20392;-86
2023/03/25 03:42:18;;;;;;;1.57;0.80;;;;;;;10.59;60.06;95018.00;6219444;23;20193;-87
2023/03/25 03:44:50;;;;;;;1.73;0.60;;;;;;;10.53;60.69;95025.72;6221417;23;20168;-86
2023/03/25 03:47:22;;;;;;;1.77;0.80;;;;;;;10.61;60.64;95030.69;6221616;23;20628;-88
2023/03/25 03:49:52;;;;;;;1.23;0.80;;;;;;;10.54;60.90;95029.88;6220190;23;20205;-87
2023/03/25 03:52:24;;;;;;;2.13;0.90;;;;;;;10.45;61.15;95046.44;6219822;23;20158;-86
2023/03/25 03:54:56;;;;;;;1.67;0.80;;;;;;;10.47;61.22;95036.75;6220327;23;20178;-87
2023/03/25 03:57:26;;;;;;;2.73;0.90;;;;;;;10.48;61.27;95039.13;6220505;23;20162;-86
2023/03/25 04:00:01;;;;;;;1.23;0.90;;;;;;;10.51;60.84;95045.69;6220896;23;20259;-85
2023/03/25 04:02:33;;;;;;;2.70;0.90;;;;;;;10.48;60.95;95052.00;6219559;23;20169;-88
2023/03/25 04:05:00;;;;;;;4.37;1.20;;;;;;;10.49;60.90;95042.50;6221142;23;20165;-87
2023/03/25 04:07:37;;;;;;;2.00;1.00;;;;;;;10.43;60.82;95043.25;6218181;23;20177;-86
2023/03/25 04:10:13;;;;;;;3.43;1.00;;;;;;;10.23;60.94;95040.53;6216992;23;20201;-86
2023/03/25 04:12:44;;;;;;;1.43;0.70;;;;;;;10.29;61.17;95061.19;6215688;23;20587;-86
2023/03/25 04:15:11;;;;;;;1.60;1.00;;;;;;;10.26;61.13;95040.19;6216246;23;20202;-85
2023/03/25 04:17:38;;;;;;;2.53;1.10;;;;;;;10.26;61.21;95045.31;6216695;23;20182;-86
2023/03/25 04:20:07;;;;;;;3.27;0.93;;;;;;;10.30;61.17;95056.84;6217014;23;20193;-86
2023/03/25 04:22:36;;;;;;;2.00;0.83;;;;;;;10.26;60.42;95058.97;6216946;23;20540;-86
2023/03/25 04:25:03;;;;;;;2.77;0.90;;;;;;;10.14;60.76;95050.16;6218551;23;20209;-86
2023/03/25 04:27:31;;;;;;;4.20;1.00;;;;;;;10.17;60.63;95054.94;6217137;23;20185;-85
2023/03/25 04:30:00;;;;;;;1.10;0.80;;;;;;;10.14;60.23;95045.03;6217629;23;20209;-86
2023/03/25 04:32:27;;;;;;;2.50;0.80;;;;;;;10.02;60.09;95049.88;6216766;23;20205;-85
2023/03/25 04:34:56;;;;;;;2.97;0.90;;;;;;;9.99;60.02;95049.47;6217241;23;20181;-85
2023/03/25 04:37:24;;;;;;;2.70;0.90;;;;;;;10.03;59.85;95060.94;6217474;23;20205;-85
2023/03/25 04:39:50;;;;;;;2.13;1.40;;;;;;;9.99;60.00;95060.53;6216714;23;20200;-86
2023/03/25 04:42:17;;;;;;;3.80;0.90;;;;;;;9.93;59.79;95053.56;6215210;23;20185;-85
2023/03/25 04:44:45;;;;;;;1.73;0.73;;;;;;;9.98;59.76;95053.81;6216673;23;20890;-87
2023/03/25 04:47:15;;;;;;;3.33;1.33;;;;;;;10.20;68.44;95052.00;6214972;23;20174;-85
2023/03/25 04:49:43;;;;;;;2.80;1.20;;;;;;;10.71;61.65;95044.81;6213925;23;20986;-86
2023/03/25 04:52:10;;;;;;;2.83;1.30;;;;;;;10.79;58.58;95048.19;6216616;23;20181;-87
2023/03/25 04:54:38;;;;;;;3.30;1.50;;;;;;;10.68;58.23;95045.19;6217072;23;20174;-86
2023/03/25 04:57:07;;;;;;;3.40;1.10;;;;;;;10.43;58.60;95048.41;6216421;23;20185;-87
2023/03/25 04:59:34;;;;;;;3.07;1.10;;;;;;;10.39;59.01;95050.56;6216649;23;20216;-85
2023/03/25 05:02:01;;;;;;;1.67;0.97;;;;;;;10.39;58.78;95033.34;6217301;23;20547;-86
2023/03/25 05:04:28;;;;;;;2.90;0.83;;;;;;;10.37;58.92;95032.75;6217360;23;20174;-86
2023/03/25 05:06:55;;;;;;;2.37;1.23;;;;;;;10.43;58.63;95040.69;6217022;23;20209;-86
2023/03/25 05:09:22;;;;;;;2.73;1.00;;;;;;;10.42;58.68;95044.25;6217560;23;20197;-86
2023/03/25 05:11:50;;;;;;;2.43;1.13;;;;;;;10.35;58.88;95032.16;6216882;23;20255;-86
2023/03/25 05:14:18;;;;;;;1.70;1.10;;;;;;;10.37;58.57;95049.97;6217261;23;20688;-86
2023/03/25 05:16:45;;;;;;;3.47;1.10;;;;;;;10.32;58.99;95044.59;6217436;23;20174;-87
2023/03/25 05:19:14;;;;;;;4.13;0.80;;;;;;;10.26;59.31;95046.13;6217521;23;20228;-87
2023/03/25 05:21:41;;;;;;;3.47;1.23;;;;;;;10.28;59.46;95053.66;6217421;23;20505;-86
2023/03/25 05:24:09;;;;;;;3.50;0.90;;;;;;;10.28;59.25;95049.31;6217812;23;20179;-85
2023/03/25 05:26:35;;;;;;;2.87;0.90;;;;;;;10.26;58.82;95055.63;6220925;23;20184;-86
2023/03/25 05:29:03;;;;;;;2.03;0.90;;;;;;;10.22;59.21;95068.06;6221948;23;20576;-87
2023/03/25 05:31:29;;;;;;;3.57;1.10;;;;;;;10.33;58.98;95069.34;6221807;23;20193;-87
2023/03/25 05:33:56;;;;;;;1.70;0.90;;;;;;;10.46;58.62;95069.41;6221675;23;20173;-87
2023/03/25 05:36:24;;;;;;;2.13;1.07;;;;;;;10.43;58.77;95085.22;6222551;23;20173;-87
2023/03/25 05:38:53;;;;;;;2.30;1.10;;;;;;;10.33;58.54;95080.41;6221675;23;20197;-87
2023/03/25 05:41:21;;;;;;;1.30;0.80;;;;;;;10.46;58.25;95074.56;6221919;23;20185;-87
2023/03/25 05:43:49;;;;;;;1.80;0.80;;;;;;;10.50;58.37;95093.00;6222941;23;20208;-87
2023/03/25 05:46:18;;;;;;;2.20;1.00;;;;;;;10.51;58.35;95092.03;6221977;23;20213;-86
2023/03/25 05:48:45;;;;;;;3.20;0.83;;;;;;;10.51;58.37;95089.44;6220942;23;20229;-87
2023/03/25 05:51:14;;;;;;;0.97;0.70;;;;;;;10.47;58.34;95090.81;6221752;23;20198;-88
2023/03/25 05:53:43;;;;;;;1.20;0.70;;;;;;;10.48;58.51;95100.13;6221455;23;20205;-86
2023/03/25 05:56:10;;;;;;;0.57;0.50;;;;;;;10.52;58.62;95094.41;6220722;23;20188;-88
2023/03/25 05:58:36;;;;;;;1.13;0.70;;;;;;;10.45;58.24;95096.13;6220659;23;20197;-87
2023/03/25 06:01:03;;;;;;;0.50;0.50;;;;;;;10.32;57.34;95093.47;6215324;23;20173;-85
2023/03/25 06:03:33;;;;;;;1.30;0.70;;;;;;;10.34;57.66;95094.88;6215282;23;20189;-86
2023/03/25 06:05:59;;;;;;;1.03;0.60;;;;;;;10.32;57.41;95109.72;6216047;23;20184;-85
2023/03/25 06:08:28;;;;;;;1.43;0.60;;;;;;;10.35;57.24;95114.47;6215816;23;20453;-86
2023/03/25 06:10:59;;;;;;;1.00;0.50;;;;;;;10.34;56.76;95112.09;6215852;23;20193;-86
2023/03/25 06:13:26;;;;;;;1.33;0.70;;;;;;;10.35;56.79;95117.06;6216409;23;20165;-86
2023/03/25 06:15:54;;;;;;;0.50;0.50;;;;;;;10.44;56.63;95120.28;6216826;23;20564;-86
2023/03/25 06:18:23;;;;;;;0.60;0.60;;;;;;;10.41;56.20;95117.28;6216229;23;20197;-86
2023/03/25 06:20:50;;;;;;;1.20;0.57;;;;;;;10.54;55.44;95130.25;6219051;23;20169;-86
2023/03/25 06:23:16;;;;;;;0.60;0.60;;;;;;;10.49;55.20;95128.25;6216066;23;20185;-86
2023/03/25 06:25:43;;;;;;;1.40;0.60;;;;;;;10.48;54.37;95131.78;6218230;23;20173;-85
2023/03/25 06:28:10;;;;;;;0.70;0.70;;;;;;;10.44;53.44;95128.00;6216423;23;20180;-86
2023/03/25 06:30:37;;;;;;;0.50;0.50;;;;;;;10.43;53.41;95141.06;6215427;23;20259;-86
2023/03/25 06:33:04;;;;;;;0.50;0.50;;;;;;;10.27;52.88;95126.69;6215550;23;20716;-86
2023/03/25 06:35:31;;;;;;;2.53;0.60;;;;;;;10.22;53.10;95139.28;6214219;23;20196;-86
2023/03/25 06:37:57;;;;;;;0.40;0.40;;;;;;;10.14;52.64;95131.69;6213830;23;20174;-86
2023/03/25 06:40:24;;;;;;;0.50;0.50;;;;;;;10.07;53.32;95159.13;6215109;23;20200;-86
2023/03/25 06:42:51;;;;;;;0.50;0.50;;;;;;;10.14;53.15;95159.97;6214702;23;20236;-85
2023/03/25 06:45:19;;;;;;;1.60;0.60;;;;;;;10.12;53.77;95161.94;6215801;23;20399;-86
2023/03/25 06:47:45;;;;;;;0.90;0.63;;;;;;;10.06;53.30;95158.31;6219027;23;20178;-87
2023/03/25 06:50:12;;;;;;;1.43;0.67;;;;;;;10.05;54.06;95160.09;6215960;23;20503;-86
2023/03/25 06:52:38;;;;;;;1.10;0.50;;;;;;;10.09;53.89;95154.59;6216366;23;20178;-87
2023/03/25 06:55:05;;;;;;;0.53;0.53;;;;;;;10.10;54.18;95156.97;6216386;23;20178;-86
2023/03/25 06:57:31;;;;;;;0.50;0.50;;;;;;;10.10;55.12;95171.63;6214522;23;20224;-85
2023/03/25 06:59:58;;;;;;;0.70;0.70;;;;;;;9.99;55.33;95166.00;6214668;23;20264;-86
2023/03/25 07:02:25;;;;;;;0.53;0.53;;;;;;;10.11;55.86;95163.72;6218518;23;20181;-87
2023/03/25 07:04:52;;;;;;;0.50;0.50;;;;;;;10.08;56.41;95176.13;6219333;23;20173;-86
2023/03/25 07:07:18;;;;;;;0.50;0.50;;;;;;;10.02;56.25;95169.94;6220451;23;20177;-86
2023/03/25 07:09:45;;;;;;;1.20;0.60;;;;;;;10.04;56.59;95175.69;6218062;23;20198;-86
2023/03/25 07:12:11;;;;;;;0.90;0.50;;;;;;;9.91;57.29;95167.88;6219541;23;20271;-87
2023/03/25 07:14:38;;;;;;;0.60;0.60;;;;;;;9.95;57.49;95184.53;6220559;23;20184;-87
2023/03/25 07:17:05;;;;;;;0.70;0.70;;;;;;;9.99;57.63;95193.47;6222224;23;20178;-87
2023/03/25 07:19:32;;;;;;;0.57;0.57;;;;;;;9.93;57.35;95182.13;6221259;23;20193;-87
2023/03/25 07:21:59;;;;;;;0.73;0.60;;;;;;;10.02;57.46;95186.16;6222218;23;20179;-87
2023/03/25 07:24:25;;;;;;;1.27;0.53;;;;;;;10.19;57.20;95193.72;6220538;23;20189;-87
2023/03/25 07:26:52;;;;;;;0.50;0.50;;;;;;;10.13;57.25;95202.91;6221078;23;20174;-86
2023/03/25 07:29:18;;;;;;;1.90;1.70;;;;;;;10.09;57.90;95204.25;6217831;23;20252;-87
2023/03/25 07:31:45;;;;;;;0.60;0.60;;;;;;;9.95;58.10;95205.09;6215689;23;20190;-85
2023/03/25 07:34:11;;;;;;;1.50;0.70;;;;;;;9.92;58.05;95197.75;6216851;23;20201;-86
2023/03/25 07:36:39;;;;;;;1.70;0.60;;;;;;;9.80;58.72;95219.78;6216455;23;20178;-85
2023/03/25 07:39:06;;;;;;;0.90;0.70;;;;;;;9.84;58.74;95214.06;6215359;23;20328;-86
2023/03/25 07:41:33;;;;;;;1.00;0.70;;;;;;;9.85;58.60;95222.56;6215987;23;20723;-86
2023/03/25 07:43:59;;;;;;;1.03;0.60;;;;;;;9.94;58.36;95217.16;6215465;23;20204;-85
2023/03/25 07:46:26;;;;;;;0.87;0.70;;;;;;;10.05;58.14;95210.72;6215836;23;20265;-87
2023/03/25 07:48:52;;;;;;;0.63;0.60;;;;;;;10.16;57.95;95214.63;6217008;23;20193;-85
2023/03/25 07:51:19;;;;;;;0.60;0.60;;;;;;;10.18;57.60;95222.97;6218098;23;20225;-87
2023/03/25 07:53:46;;;;;;;0.80;0.60;;;;;;;10.08;57.99;95222.44;6217782;23;20224;-86
2023/03/25 07:56:14;;;;;;;1.23;0.50;;;;;;;10.11;57.95;95233.16;6217357;23;20179;-86
2023/03/25 07:58:40;;;;;;;1.67;0.70;;;;;;;10.07;57.61;95234.50;6217038;23;20692;-85
2023/03/25 08:01:07;;;;;;;1.40;0.80;;;;;;;10.05;58.28;95221.03;6216068;23;20169;-86
2023/03/25 08:03:34;;;;;;;1.03;0.60;;;;;;;10.41;57.09;95215.88;6217533;23;20177;-86
2023/03/25 08:06:01;;;;;;;1.17;0.80;;;;;;;10.59;57.03;95226.50;6215936;23;20208;-86
2023/03/25 08:08:29;;;;;;;2.47;0.70;;;;;;;10.86;56.21;95221.59;6217145;23;20193;-85
2023/03/25 08:10:57;;;;;;;0.60;0.50;;;;;;;11.04;55.62;95219.34;6218458;23;20212;-86
2023/03/25 08:13:24;;;;;;;1.90;0.67;;;;;;;11.59;54.59;95212.50;6219474;23;20184;-87
2023/03/25 08:15:51;;;;;;;1.53;0.70;;;;;;;11.86;53.61;95214.25;6220110;23;20177;-87
2023/03/25 08:18:18;;;;;;;1.90;0.63;;;;;;;11.30;54.77;95200.69;6218996;23;20193;-88
2023/03/25 08:20:45;;;;;;;0.80;0.63;;;;;;;11.36;54.80;95203.28;6218982;23;20185;-87
2023/03/25 08:23:12;;;;;;;0.73;0.73;;;;;;;11.58;54.32;95209.13;6220804;23;20182;-87
2023/03/25 08:25:40;;;;;;;1.10;0.70;;;;;;;11.87;53.75;95218.44;6221842;23;20564;-87
2023/03/25 08:28:08;;;;;;;1.00;0.60;;;;;;;12.10;53.41;95210.34;6220339;23;20260;-86
2023/03/25 08:30:37;;;;;;;0.60;0.60;;;;;;;12.06;53.13;95198.84;6220228;23;20500;-87
2023/03/25 08:33:05;;;;;;;0.83;0.57;;;;;;;12.12;53.41;95195.47;6219971;23;20240;-87
2023/03/25 08:35:32;;;;;;;0.57;0.57;;;;;;;12.14;53.79;95203.00;6218008;23;20174;-86
2023/03/25 08:38:00;;;;;;;2.00;0.60;;;;;;;11.77;54.64;95203.28;6218794;23;20184;-86
2023/03/25 08:40:26;;;;;;;0.50;0.40;;;;;;;11.23;55.58;95195.47;6218057;23;20487;-85
2023/03/25 08:42:53;;;;;;;1.20;0.50;;;;;;;11.06;56.12;95200.13;6216498;23;20188;-86
2023/03/25 08:45:24;;;;;;;1.40;0.73;;;;;;;11.39;56.07;95196.94;6218332;23;20178;-88
2023/03/25 08:47:50;;;;;;;0.77;0.57;;;;;;;11.58;55.46;95205.75;6219260;23;20162;-87
2023/03/25 08:50:17;;;;;;;0.77;0.57;;;;;;;11.60;55.47;95199.44;6218135;23;20197;-87
2023/03/25 08:52:44;;;;;;;0.90;0.60;;;;;;;11.58;55.39;95198.81;6219749;23;20203;-87
2023/03/25 08:55:11;;;;;;;0.43;0.43;;;;;;;11.53;55.53;95208.13;6220653;23;20187;-87
2023/03/25 08:57:37;;;;;;;0.87;0.50;;;;;;;11.32;55.60;95217.56;6218817;23;20223;-88
2023/03/25 09:00:11;;;;;;;0.70;0.60;;;;;;;11.16;56.28;95211.91;6219917;23;20197;-86
2023/03/25 09:02:39;;;;;;;1.40;0.53;;;;;;;11.19;56.11;95212.28;6220059;23;20233;-86
2023/03/25 09:05:06;;;;;;;0.60;0.60;;;;;;;11.16;56.73;95204.94;6220603;23;20256;-87
2023/03/25 09:07:33;;;;;;;0.50;0.50;;;;;;;11.13;56.49;95199.41;6220652;23;20228;-87
2023/03/25 09:09:59;;;;;;;2.00;0.60;;;;;;;11.23;56.55;95203.22;6220691;23;20204;-86
2023/03/25 09:12:26;;;;;;;1.13;0.60;;;;;;;11.17;56.45;95205.75;6218215;23;20228;-85
2023/03/25 09:14:52;;;;;;;0.90;0.63;;;;;;;11.10;56.51;95210.88;6218973;23;20520;-87
2023/03/25 09:17:18;;;;;;;0.77;0.60;;;;;;;11.39;56.72;95212.41;6220975;23;20173;-86
2023/03/25 09:19:46;;;;;;;1.77;0.70;;;;;;;11.63;55.01;95209.38;6218667;23;20536;-85
2023/03/25 09:22:13;;;;;;;0.60;0.60;;;;;;;12.08;53.71;95204.59;6218630;23;20174;-85
2023/03/25 09:24:40;;;;;;;0.50;0.50;;;;;;;12.65;52.73;95211.84;6219722;23;20177;-86
2023/03/25 09:27:07;;;;;;;0.60;0.60;;;;;;;12.52;51.99;95219.56;6219045;23;20180;-86
2023/03/25 09:29:35;;;;;;;0.60;0.60;;;;;;;12.51;51.96;95210.22;6218578;23;20526;-86
2023/03/25 09:32:02;;;;;;;0.87;0.63;;;;;;;12.55;52.01;95210.63;6219182;23;20201;-87
2023/03/25 09:34:29;;;;;;;1.50;0.70;;;;;;;12.34;52.70;95207.22;6217820;23;20173;-85
2023/03/25 09:36:57;;;;;;;1.67;0.77;;;;;;;12.21;52.75;95214.94;6217689;23;20170;-87
2023/03/25 09:39:24;;;;;;;1.40;0.70;;;;;;;12.21;52.63;95196.88;6218240;23;20220;-86
2023/03/25 09:42:08;;;;;;;1.00;0.73;;;;;;;11.98;53.21;95194.63;6217470;23;20640;-86
2023/03/25 09:44:42;;;;;;;1.70;0.80;;;;;;;12.22;53.03;95185.56;6218239;23;20161;-87
2023/03/25 09:47:11;;;;;;;1.17;0.60;;;;;;;12.69;51.95;95189.78;6217644;23;20175;-86
2023/03/25 09:49:42;;;;;;;0.70;0.70;;;;;;;12.93;51.04;95179.81;6216080;23;20235;-86
2023/03/25 09:52:16;;;;;;;1.03;0.80;;;;;;;12.62;50.86;95178.66;6215214;23;20220;-88
2023/03/25 09:54:48;;;;;;;1.63;0.70;;;;;;;12.51;51.46;95181.81;6216183;23;20165;-86
2023/03/25 09:57:27;;;;;;;1.03;0.80;;;;;;;12.56;50.98;95184.59;6217081;23;20165;-85
2023/03/25 09:59:57;;;;;;;1.70;1.00;;;;;;;12.50;50.51;95182.81;6216193;23;20476;-86
2023/03/25 10:02:36;;;;;;;1.47;0.60;;;;;;;12.40;50.74;95172.06;6216451;23;20629;-87
2023/03/25 10:05:31;;;;;;;1.83;0.80;;;;;;;12.26;51.20;95173.06;6216892;23;20403;-86
2023/03/25 10:08:12;;;;;;;1.57;0.80;;;;;;;12.38;51.68;95182.59;6218358;23;20161;-87
2023/03/25 10:10:46;;;;;;;1.73;0.90;;;;;;;12.69;50.87;95150.25;6219192;23;20213;-86
2023/03/25 10:13:20;;;;;;;0.93;0.80;;;;;;;12.99;50.61;95151.38;6218546;23;20205;-85
2023/03/25 10:15:54;;;;;;;0.87;0.70;;;;;;;13.34;49.61;95151.13;6220153;23;20161;-87
2023/03/25 10:18:43;;;;;;;1.30;0.60;;;;;;;13.22;48.71;95145.81;6219062;23;20215;-86
2023/03/25 10:21:15;;;;;;;1.00;0.80;;;;;;;12.95;49.42;95134.69;6222863;23;20162;-87
2023/03/25 10:23:49;;;;;;;0.80;0.80;;;;;;;13.10;48.96;95132.66;6222652;23;20170;-86
2023/03/25 10:26:22;;;;;;;1.27;0.70;;;;;;;13.12;49.26;95125.50;6222546;23;20161;-88
2023/03/25 10:28:56;;;;;;;0.77;0.67;;;;;;;13.13;48.67;95134.84;6217958;23;20225;-86
2023/03/25 10:31:26;;;;;;;3.23;0.90;;;;;;;12.89;47.71;95135.53;6221145;23;20178;-87
2023/03/25 10:33:55;;;;;;;1.40;0.90;;;;;;;12.73;49.45;95135.91;6222958;23;20158;-87
2023/03/25 10:36:28;;;;;;;1.20;0.67;;;;;;;12.54;49.44;95123.81;6221920;23;20231;-87
2023/03/25 10:38:55;;;;;;;1.43;0.80;;;;;;;12.41;49.87;95134.94;6223135;23;20197;-86
2023/03/25 10:41:26;;;;;;;1.37;0.70;;;;;;;12.36;50.46;95132.16;6222216;23;20192;-88
2023/03/25 10:43:53;;;;;;;1.00;0.90;;;;;;;12.18;53.21;95150.81;6223694;23;20264;-88
2023/03/25 10:46:27;;;;;;;2.30;0.70;;;;;;;12.12;52.29;95143.88;6223134;23;20181;-88
2023/03/25 10:48:53;;;;;;;1.33;0.90;;;;;;;12.22;51.87;95146.84;6219429;23;20196;-85
2023/03/25 10:51:24;;;;;;;0.70;0.60;;;;;;;12.35;50.77;95118.44;6220638;23;20236;-87
2023/03/25 10:53:52;;;;;;;1.23;0.70;;;;;;;12.32;49.90;95120.63;6223953;23;20173;-88
2023/03/25 10:56:24;;;;;;;1.10;0.60;;;;;;;12.33;50.06;95122.22;6221633;23;20231;-86
2023/03/25 10:58:53;;;;;;;0.50;0.50;;;;;;;12.39;49.27;95121.44;6222304;23;20194;-87
2023/03/25 11:01:22;;;;;;;1.50;0.67;;;;;;;12.40;49.42;95105.75;6220118;23;20185;-86
2023/03/25 11:03:51;;;;;;;0.60;0.60;;;;;;;12.48;49.52;95124.63;6222133;23;20173;-87
2023/03/25 11:06:23;;;;;;;1.00;0.67;;;;;;;12.43;49.82;95135.53;6226902;23;20184;-86
2023/03/25 11:09:12;;;;;;;1.70;0.93;;;;;;;12.53;49.29;95120.44;6226034;23;20197;-87
2023/03/25 11:15:54;;;;;;;;;;;;;;;;;;;;;
2023/03/25 11:18:27;;;;;;;1.37;0.70;;;;;;;12.73;49.85;95092.78;6201586;23;20222;-88
2023/03/25 11:20:57;;;;;;;0.77;0.50;;;;;;;12.68;49.75;95115.06;6226418;23;20162;-88
2023/03/25 11:23:27;;;;;;;0.60;0.60;;;;;;;12.47;49.70;95090.25;6225872;23;20166;-87
2023/03/25 11:25:55;;;;;;;0.80;0.80;;;;;;;12.49;50.15;95096.03;6225450;23;20173;-88
2023/03/25 11:28:27;;;;;;;0.73;0.60;;;;;;;12.48;50.35;95093.63;6225953;23;20198;-87
2023/03/25 11:31:12;;;;;;;0.70;0.60;;;;;;;12.33;51.02;95084.28;6226616;23;20162;-86
2023/03/25 11:33:41;;;;;;;2.00;0.60;;;;;;;12.19;51.31;95098.19;6226131;23;20169;-87
2023/03/25 11:36:22;;;;;;;0.60;0.60;;;;;;;12.24;51.76;95079.53;6226332;23;20188;-87
2023/03/25 11:38:55;;;;;;;0.60;0.60;;;;;;;12.29;52.10;95095.25;6225898;23;20201;-88
2023/03/25 11:41:22;;;;;;;0.83;0.60;;;;;;;12.65;51.37;95077.53;6225956;23;20195;-86
2023/03/25 11:43:49;;;;;;;0.40;0.40;;;;;;;12.51;49.87;95068.19;6224517;23;20227;-88
2023/03/25 11:46:18;;;;;;;0.60;0.40;;;;;;;12.58;49.90;95063.03;6225752;23;20178;-87
2023/03/25 11:48:46;;;;;;;0.50;0.50;;;;;;;12.68;49.64;95092.63;6225574;23;20203;-88
2023/03/25 11:51:14;;;;;;;0.70;0.47;;;;;;;12.68;50.08;95068.59;6224799;23;20197;-87